sensor_id;sensor_type;location;lat;lon;timestamp;P1;durP1;ratioP1;P2;durP2;ratioP2
49340;SDS011;35209;51.050;13.678;2022-08-02T00:02:08;1.02;;;0.90;;
49340;SDS011;35209;51.050;13.678;2022-08-02T00:07:10;1.60;;;0.90;;
49340;SDS011;35209;51.050;13.678;2022-08-02T00:12:12;0.63;;;0.63;;
49340;SDS011;35209;51.050;13.678;2022-08-02T00:17:14;0.80;;;0.68;;
49340;SDS011;35209;51.050;13.678;2022-08-02T00:22:15;0.80;;;0.80;;
49340;SDS011;35209;51.050;13.678;2022-08-02T00:27:17;0.80;;;0.80;;
49340;SDS011;35209;51.050;13.678;2022-08-02T00:32:19;0.95;;;0.65;;
49340;SDS011;35209;51.050;13.678;2022-08-02T00:37:23;1.65;;;0.80;;
49340;SDS011;35209;51.050;13.678;2022-08-02T00:42:25;0.85;;;0.70;;
49340;SDS011;35209;51.050;13.678;2022-08-02T00:47:27;1.13;;;0.88;;
49340;SDS011;35209;51.050;13.678;2022-08-02T00:52:29;1.13;;;0.77;;
49340;SDS011;35209;51.050;13.678;2022-08-02T00:57:30;0.90;;;0.90;;
49340;SDS011;35209;51.050;13.678;2022-08-02T01:02:32;0.80;;;0.80;;
49340;SDS011;35209;51.050;13.678;2022-08-02T01:07:34;3.88;;;1.10;;
49340;SDS011;35209;51.050;13.678;2022-08-02T01:12:35;0.85;;;0.85;;
49340;SDS011;35209;51.050;13.678;2022-08-02T01:17:42;0.85;;;0.85;;
49340;SDS011;35209;51.050;13.678;2022-08-02T01:33:36;2.08;;;1.00;;
49340;SDS011;35209;51.050;13.678;2022-08-02T01:38:45;1.08;;;1.08;;
49340;SDS011;35209;51.050;13.678;2022-08-02T01:43:50;2.60;;;0.73;;
49340;SDS011;35209;51.050;13.678;2022-08-02T01:48:56;2.47;;;1.00;;
49340;SDS011;35209;51.050;13.678;2022-08-02T01:53:59;1.23;;;1.13;;
49340;SDS011;35209;51.050;13.678;2022-08-02T01:59:03;1.15;;;1.00;;
49340;SDS011;35209;51.050;13.678;2022-08-02T02:04:08;2.03;;;1.10;;
49340;SDS011;35209;51.050;13.678;2022-08-02T02:09:14;1.40;;;1.20;;
49340;SDS011;35209;51.050;13.678;2022-08-02T02:14:16;0.97;;;0.90;;
49340;SDS011;35209;51.050;13.678;2022-08-02T02:19:20;1.25;;;1.10;;
49340;SDS011;35209;51.050;13.678;2022-08-02T02:24:24;1.23;;;1.13;;
49340;SDS011;35209;51.050;13.678;2022-08-02T02:29:28;1.45;;;1.20;;
49340;SDS011;35209;51.050;13.678;2022-08-02T02:34:33;1.33;;;1.20;;
49340;SDS011;35209;51.050;13.678;2022-08-02T02:39:38;1.30;;;1.20;;
49340;SDS011;35209;51.050;13.678;2022-08-02T02:44:41;1.52;;;1.27;;
49340;SDS011;35209;51.050;13.678;2022-08-02T02:49:45;1.55;;;1.42;;
49340;SDS011;35209;51.050;13.678;2022-08-02T02:54:48;1.52;;;1.40;;
49340;SDS011;35209;51.050;13.678;2022-08-02T02:59:51;1.60;;;1.50;;
49340;SDS011;35209;51.050;13.678;2022-08-02T03:04:55;2.00;;;1.73;;
49340;SDS011;35209;51.050;13.678;2022-08-02T03:09:59;2.17;;;1.60;;
49340;SDS011;35209;51.050;13.678;2022-08-02T03:15:05;3.28;;;1.75;;
49340;SDS011;35209;51.050;13.678;2022-08-02T03:20:09;1.50;;;1.40;;
49340;SDS011;35209;51.050;13.678;2022-08-02T03:25:15;2.08;;;1.80;;
49340;SDS011;35209;51.050;13.678;2022-08-02T03:30:17;1.65;;;1.55;;
49340;SDS011;35209;51.050;13.678;2022-08-02T03:35:19;2.05;;;1.65;;
49340;SDS011;35209;51.050;13.678;2022-08-02T03:40:24;1.67;;;1.58;;
49340;SDS011;35209;51.050;13.678;2022-08-02T03:45:28;1.60;;;1.50;;
49340;SDS011;35209;51.050;13.678;2022-08-02T03:50:30;1.92;;;1.60;;
49340;SDS011;35209;51.050;13.678;2022-08-02T03:55:34;1.80;;;1.70;;
49340;SDS011;35209;51.050;13.678;2022-08-02T04:00:36;2.20;;;2.10;;
49340;SDS011;35209;51.050;13.678;2022-08-02T04:05:38;2.28;;;1.52;;
49340;SDS011;35209;51.050;13.678;2022-08-02T04:11:00;2.35;;;2.15;;
49340;SDS011;35209;51.050;13.678;2022-08-02T04:16:22;3.22;;;1.90;;
49340;SDS011;35209;51.050;13.678;2022-08-02T04:21:40;2.10;;;1.90;;
49340;SDS011;35209;51.050;13.678;2022-08-02T04:26:56;2.17;;;1.98;;
49340;SDS011;35209;51.050;13.678;2022-08-02T04:32:19;2.80;;;2.60;;
49340;SDS011;35209;51.050;13.678;2022-08-02T04:37:22;2.00;;;1.80;;
49340;SDS011;35209;51.050;13.678;2022-08-02T04:42:24;3.42;;;2.50;;
49340;SDS011;35209;51.050;13.678;2022-08-02T04:47:27;3.58;;;2.08;;
49340;SDS011;35209;51.050;13.678;2022-08-02T04:52:49;2.75;;;2.10;;
49340;SDS011;35209;51.050;13.678;2022-08-02T04:57:50;3.10;;;2.80;;
49340;SDS011;35209;51.050;13.678;2022-08-02T05:02:55;2.75;;;2.55;;
49340;SDS011;35209;51.050;13.678;2022-08-02T05:07:57;3.30;;;2.83;;
49340;SDS011;35209;51.050;13.678;2022-08-02T05:13:00;2.58;;;2.38;;
49340;SDS011;35209;51.050;13.678;2022-08-02T05:18:04;2.78;;;2.58;;
49340;SDS011;35209;51.050;13.678;2022-08-02T05:23:07;2.55;;;2.35;;
49340;SDS011;35209;51.050;13.678;2022-08-02T05:28:09;2.70;;;2.50;;
49340;SDS011;35209;51.050;13.678;2022-08-02T05:33:12;2.25;;;2.13;;
49340;SDS011;35209;51.050;13.678;2022-08-02T05:38:14;3.40;;;2.53;;
49340;SDS011;35209;51.050;13.678;2022-08-02T05:43:18;4.63;;;2.28;;
49340;SDS011;35209;51.050;13.678;2022-08-02T05:48:21;2.70;;;2.20;;
49340;SDS011;35209;51.050;13.678;2022-08-02T06:04:32;2.08;;;1.92;;
49340;SDS011;35209;51.050;13.678;2022-08-02T06:09:46;2.60;;;2.40;;
49340;SDS011;35209;51.050;13.678;2022-08-02T06:14:51;3.75;;;2.25;;
49340;SDS011;35209;51.050;13.678;2022-08-02T06:19:57;7.93;;;2.92;;
49340;SDS011;35209;51.050;13.678;2022-08-02T06:25:01;2.85;;;2.17;;
49340;SDS011;35209;51.050;13.678;2022-08-02T06:30:04;2.63;;;1.73;;
49340;SDS011;35209;51.050;13.678;2022-08-02T06:35:07;3.75;;;1.40;;
49340;SDS011;35209;51.050;13.678;2022-08-02T06:45:17;3.65;;;1.88;;
49340;SDS011;35209;51.050;13.678;2022-08-02T06:50:19;2.20;;;1.70;;
49340;SDS011;35209;51.050;13.678;2022-08-02T06:55:21;3.80;;;2.00;;
49340;SDS011;35209;51.050;13.678;2022-08-02T07:00:23;4.05;;;1.60;;
49340;SDS011;35209;51.050;13.678;2022-08-02T07:05:25;5.95;;;2.42;;
49340;SDS011;35209;51.050;13.678;2022-08-02T07:10:26;3.92;;;1.70;;
49340;SDS011;35209;51.050;13.678;2022-08-02T07:15:28;4.38;;;1.60;;
49340;SDS011;35209;51.050;13.678;2022-08-02T07:20:30;5.63;;;1.95;;
49340;SDS011;35209;51.050;13.678;2022-08-02T07:25:32;5.97;;;1.70;;
49340;SDS011;35209;51.050;13.678;2022-08-02T07:30:54;6.93;;;1.58;;
49340;SDS011;35209;51.050;13.678;2022-08-02T07:35:55;4.47;;;1.63;;
49340;SDS011;35209;51.050;13.678;2022-08-02T07:41:01;2.85;;;1.50;;
49340;SDS011;35209;51.050;13.678;2022-08-02T07:46:04;7.70;;;1.85;;
49340;SDS011;35209;51.050;13.678;2022-08-02T07:51:05;3.53;;;1.30;;
49340;SDS011;35209;51.050;13.678;2022-08-02T07:56:07;7.30;;;1.40;;
49340;SDS011;35209;51.050;13.678;2022-08-02T08:01:09;7.40;;;1.55;;
49340;SDS011;35209;51.050;13.678;2022-08-02T08:06:11;2.95;;;1.10;;
49340;SDS011;35209;51.050;13.678;2022-08-02T08:11:12;2.30;;;1.27;;
49340;SDS011;35209;51.050;13.678;2022-08-02T08:16:14;3.40;;;1.23;;
49340;SDS011;35209;51.050;13.678;2022-08-02T08:21:16;3.80;;;2.15;;
49340;SDS011;35209;51.050;13.678;2022-08-02T08:26:17;5.05;;;1.45;;
49340;SDS011;35209;51.050;13.678;2022-08-02T08:31:19;6.38;;;1.45;;
49340;SDS011;35209;51.050;13.678;2022-08-02T08:36:21;8.23;;;1.25;;
49340;SDS011;35209;51.050;13.678;2022-08-02T08:41:22;7.78;;;1.50;;
49340;SDS011;35209;51.050;13.678;2022-08-02T08:46:25;2.45;;;1.08;;
49340;SDS011;35209;51.050;13.678;2022-08-02T08:51:29;2.23;;;1.57;;
49340;SDS011;35209;51.050;13.678;2022-08-02T08:56:36;2.15;;;1.10;;
49340;SDS011;35209;51.050;13.678;2022-08-02T09:01:38;6.05;;;1.00;;
49340;SDS011;35209;51.050;13.678;2022-08-02T09:06:50;4.30;;;1.42;;
49340;SDS011;35209;51.050;13.678;2022-08-02T09:11:52;2.83;;;1.35;;
49340;SDS011;35209;51.050;13.678;2022-08-02T09:17:04;3.05;;;1.40;;
49340;SDS011;35209;51.050;13.678;2022-08-02T09:22:08;2.85;;;0.90;;
49340;SDS011;35209;51.050;13.678;2022-08-02T09:27:15;6.13;;;1.80;;
49340;SDS011;35209;51.050;13.678;2022-08-02T09:32:18;3.97;;;1.30;;
49340;SDS011;35209;51.050;13.678;2022-08-02T09:37:24;3.97;;;1.25;;
49340;SDS011;35209;51.050;13.678;2022-08-02T09:42:28;2.83;;;1.27;;
49340;SDS011;35209;51.050;13.678;2022-08-02T09:47:31;2.17;;;1.20;;
49340;SDS011;35209;51.050;13.678;2022-08-02T09:52:37;2.10;;;1.00;;
49340;SDS011;35209;51.050;13.678;2022-08-02T09:57:44;3.38;;;1.20;;
49340;SDS011;35209;51.050;13.678;2022-08-02T10:08:35;1.70;;;1.00;;
49340;SDS011;35209;51.050;13.678;2022-08-02T10:13:37;1.70;;;1.00;;
49340;SDS011;35209;51.050;13.678;2022-08-02T10:18:39;1.70;;;0.98;;
49340;SDS011;35209;51.050;13.678;2022-08-02T10:23:42;5.63;;;0.90;;
49340;SDS011;35209;51.050;13.678;2022-08-02T10:28:46;1.27;;;0.90;;
49340;SDS011;35209;51.050;13.678;2022-08-02T10:33:50;8.65;;;0.95;;
49340;SDS011;35209;51.050;13.678;2022-08-02T10:38:54;1.67;;;0.80;;
49340;SDS011;35209;51.050;13.678;2022-08-02T10:43:58;1.08;;;0.90;;
49340;SDS011;35209;51.050;13.678;2022-08-02T10:54:24;1.50;;;1.10;;
49340;SDS011;35209;51.050;13.678;2022-08-02T10:59:32;2.65;;;0.80;;
49340;SDS011;35209;51.050;13.678;2022-08-02T11:09:38;2.85;;;0.75;;
49340;SDS011;35209;51.050;13.678;2022-08-02T11:14:43;2.42;;;0.80;;
49340;SDS011;35209;51.050;13.678;2022-08-02T11:30:23;1.92;;;0.80;;
49340;SDS011;35209;51.050;13.678;2022-08-02T11:35:34;1.10;;;0.80;;
49340;SDS011;35209;51.050;13.678;2022-08-02T11:40:38;3.55;;;0.80;;
49340;SDS011;35209;51.050;13.678;2022-08-02T11:45:39;0.95;;;0.70;;
49340;SDS011;35209;51.050;13.678;2022-08-02T11:50:41;3.03;;;0.70;;
49340;SDS011;35209;51.050;13.678;2022-08-02T11:55:43;1.55;;;0.90;;
49340;SDS011;35209;51.050;13.678;2022-08-02T12:00:44;1.98;;;0.68;;
49340;SDS011;35209;51.050;13.678;2022-08-02T12:05:48;1.13;;;0.60;;
49340;SDS011;35209;51.050;13.678;2022-08-02T12:11:06;1.10;;;0.70;;
49340;SDS011;35209;51.050;13.678;2022-08-02T12:16:11;1.15;;;0.75;;
49340;SDS011;35209;51.050;13.678;2022-08-02T12:21:33;0.50;;;0.50;;
49340;SDS011;35209;51.050;13.678;2022-08-02T12:26:52;0.60;;;0.60;;
49340;SDS011;35209;51.050;13.678;2022-08-02T12:31:54;2.60;;;0.60;;
49340;SDS011;35209;51.050;13.678;2022-08-02T12:37:06;0.82;;;0.70;;
49340;SDS011;35209;51.050;13.678;2022-08-02T12:42:10;1.15;;;0.70;;
49340;SDS011;35209;51.050;13.678;2022-08-02T12:47:14;0.70;;;0.47;;
49340;SDS011;35209;51.050;13.678;2022-08-02T12:52:22;0.57;;;0.52;;
49340;SDS011;35209;51.050;13.678;2022-08-02T12:57:24;2.38;;;0.60;;
49340;SDS011;35209;51.050;13.678;2022-08-02T13:02:27;3.67;;;0.80;;
49340;SDS011;35209;51.050;13.678;2022-08-02T13:07:28;1.40;;;0.60;;
49340;SDS011;35209;51.050;13.678;2022-08-02T13:12:31;3.30;;;0.75;;
49340;SDS011;35209;51.050;13.678;2022-08-02T13:17:35;1.17;;;0.63;;
49340;SDS011;35209;51.050;13.678;2022-08-02T13:22:37;1.33;;;0.68;;
49340;SDS011;35209;51.050;13.678;2022-08-02T13:27:53;1.65;;;0.60;;
49340;SDS011;35209;51.050;13.678;2022-08-02T13:32:54;0.65;;;0.52;;
49340;SDS011;35209;51.050;13.678;2022-08-02T13:38:01;3.15;;;0.70;;
49340;SDS011;35209;51.050;13.678;2022-08-02T13:43:04;1.83;;;0.90;;
49340;SDS011;35209;51.050;13.678;2022-08-02T13:48:06;3.10;;;0.98;;
49340;SDS011;35209;51.050;13.678;2022-08-02T13:53:20;0.77;;;0.63;;
49340;SDS011;35209;51.050;13.678;2022-08-02T13:58:21;0.50;;;0.50;;
49340;SDS011;35209;51.050;13.678;2022-08-02T14:03:23;0.50;;;0.50;;
49340;SDS011;35209;51.050;13.678;2022-08-02T14:08:45;1.58;;;0.52;;
49340;SDS011;35209;51.050;13.678;2022-08-02T14:13:46;0.80;;;0.50;;
49340;SDS011;35209;51.050;13.678;2022-08-02T14:18:48;0.88;;;0.70;;
49340;SDS011;35209;51.050;13.678;2022-08-02T14:23:51;3.28;;;0.65;;
49340;SDS011;35209;51.050;13.678;2022-08-02T14:28:52;0.60;;;0.60;;
49340;SDS011;35209;51.050;13.678;2022-08-02T14:33:54;1.67;;;0.50;;
49340;SDS011;35209;51.050;13.678;2022-08-02T14:38:56;2.08;;;0.70;;
49340;SDS011;35209;51.050;13.678;2022-08-02T14:43:58;1.55;;;0.50;;
49340;SDS011;35209;51.050;13.678;2022-08-02T14:49:06;0.82;;;0.60;;
49340;SDS011;35209;51.050;13.678;2022-08-02T14:54:09;1.15;;;0.60;;
49340;SDS011;35209;51.050;13.678;2022-08-02T14:59:14;1.55;;;0.70;;
49340;SDS011;35209;51.050;13.678;2022-08-02T15:04:16;2.25;;;0.80;;
49340;SDS011;35209;51.050;13.678;2022-08-02T15:09:18;1.55;;;0.70;;
49340;SDS011;35209;51.050;13.678;2022-08-02T15:14:20;0.50;;;0.50;;
49340;SDS011;35209;51.050;13.678;2022-08-02T15:19:27;0.82;;;0.68;;
49340;SDS011;35209;51.050;13.678;2022-08-02T15:24:50;1.38;;;0.70;;
49340;SDS011;35209;51.050;13.678;2022-08-02T15:29:52;2.22;;;0.70;;
49340;SDS011;35209;51.050;13.678;2022-08-02T15:35:00;2.25;;;0.70;;
49340;SDS011;35209;51.050;13.678;2022-08-02T15:40:02;1.63;;;0.75;;
49340;SDS011;35209;51.050;13.678;2022-08-02T15:45:04;2.92;;;0.60;;
49340;SDS011;35209;51.050;13.678;2022-08-02T15:50:06;2.25;;;0.70;;
49340;SDS011;35209;51.050;13.678;2022-08-02T15:55:11;1.13;;;0.60;;
49340;SDS011;35209;51.050;13.678;2022-08-02T16:00:14;0.85;;;0.50;;
49340;SDS011;35209;51.050;13.678;2022-08-02T16:10:21;2.35;;;0.80;;
49340;SDS011;35209;51.050;13.678;2022-08-02T16:15:23;0.77;;;0.68;;
49340;SDS011;35209;51.050;13.678;2022-08-02T16:20:25;1.33;;;0.70;;
49340;SDS011;35209;51.050;13.678;2022-08-02T16:25:26;0.80;;;0.50;;
49340;SDS011;35209;51.050;13.678;2022-08-02T16:30:28;0.70;;;0.60;;
49340;SDS011;35209;51.050;13.678;2022-08-02T16:35:30;0.80;;;0.77;;
49340;SDS011;35209;51.050;13.678;2022-08-02T16:40:31;2.65;;;0.75;;
49340;SDS011;35209;51.050;13.678;2022-08-02T16:45:34;2.17;;;0.80;;
49340;SDS011;35209;51.050;13.678;2022-08-02T16:50:36;1.45;;;0.60;;
49340;SDS011;35209;51.050;13.678;2022-08-02T16:55:38;2.08;;;0.68;;
49340;SDS011;35209;51.050;13.678;2022-08-02T17:00:52;0.98;;;0.60;;
49340;SDS011;35209;51.050;13.678;2022-08-02T17:05:54;0.80;;;0.55;;
49340;SDS011;35209;51.050;13.678;2022-08-02T17:10:57;0.95;;;0.80;;
49340;SDS011;35209;51.050;13.678;2022-08-02T17:16:04;0.90;;;0.70;;
49340;SDS011;35209;51.050;13.678;2022-08-02T17:21:26;0.70;;;0.70;;
49340;SDS011;35209;51.050;13.678;2022-08-02T17:26:28;0.80;;;0.73;;
49340;SDS011;35209;51.050;13.678;2022-08-02T17:31:30;1.13;;;0.60;;
49340;SDS011;35209;51.050;13.678;2022-08-02T17:36:43;1.30;;;1.00;;
49340;SDS011;35209;51.050;13.678;2022-08-02T17:41:50;1.55;;;0.82;;
49340;SDS011;35209;51.050;13.678;2022-08-02T17:46:51;1.10;;;1.00;;
49340;SDS011;35209;51.050;13.678;2022-08-02T17:51:53;1.77;;;1.00;;
49340;SDS011;35209;51.050;13.678;2022-08-02T17:57:15;1.20;;;1.00;;
49340;SDS011;35209;51.050;13.678;2022-08-02T18:02:19;1.13;;;0.70;;
49340;SDS011;35209;51.050;13.678;2022-08-02T18:07:21;1.48;;;0.70;;
49340;SDS011;35209;51.050;13.678;2022-08-02T18:12:25;1.42;;;0.88;;
49340;SDS011;35209;51.050;13.678;2022-08-02T18:17:28;0.88;;;0.82;;
49340;SDS011;35209;51.050;13.678;2022-08-02T18:22:29;1.30;;;1.10;;
49340;SDS011;35209;51.050;13.678;2022-08-02T18:27:31;1.60;;;0.88;;
49340;SDS011;35209;51.050;13.678;2022-08-02T18:32:33;1.98;;;1.00;;
49340;SDS011;35209;51.050;13.678;2022-08-02T18:37:55;2.47;;;1.30;;
49340;SDS011;35209;51.050;13.678;2022-08-02T18:43:04;1.95;;;1.40;;
49340;SDS011;35209;51.050;13.678;2022-08-02T18:48:08;2.00;;;1.58;;
49340;SDS011;35209;51.050;13.678;2022-08-02T18:53:09;1.40;;;1.30;;
49340;SDS011;35209;51.050;13.678;2022-08-02T18:58:13;1.50;;;0.90;;
49340;SDS011;35209;51.050;13.678;2022-08-02T19:03:20;2.05;;;1.02;;
49340;SDS011;35209;51.050;13.678;2022-08-02T19:08:22;1.33;;;0.82;;
49340;SDS011;35209;51.050;13.678;2022-08-02T19:13:26;1.23;;;1.00;;
49340;SDS011;35209;51.050;13.678;2022-08-02T19:18:28;2.65;;;1.00;;
49340;SDS011;35209;51.050;13.678;2022-08-02T19:23:30;2.03;;;1.10;;
49340;SDS011;35209;51.050;13.678;2022-08-02T19:28:32;1.60;;;1.10;;
49340;SDS011;35209;51.050;13.678;2022-08-02T19:33:34;3.28;;;1.40;;
49340;SDS011;35209;51.050;13.678;2022-08-02T19:38:56;2.90;;;1.30;;
49340;SDS011;35209;51.050;13.678;2022-08-02T19:44:01;3.00;;;1.10;;
49340;SDS011;35209;51.050;13.678;2022-08-02T19:49:22;3.05;;;1.50;;
49340;SDS011;35209;51.050;13.678;2022-08-02T19:54:41;3.20;;;1.80;;
49340;SDS011;35209;51.050;13.678;2022-08-02T19:59:57;2.97;;;1.52;;
49340;SDS011;35209;51.050;13.678;2022-08-02T20:04:59;1.73;;;1.63;;
49340;SDS011;35209;51.050;13.678;2022-08-02T20:10:16;2.33;;;1.48;;
49340;SDS011;35209;51.050;13.678;2022-08-02T20:15:25;2.22;;;1.30;;
49340;SDS011;35209;51.050;13.678;2022-08-02T20:20:47;2.85;;;1.42;;
49340;SDS011;35209;51.050;13.678;2022-08-02T20:25:50;3.03;;;1.27;;
49340;SDS011;35209;51.050;13.678;2022-08-02T20:30:54;2.10;;;1.30;;
49340;SDS011;35209;51.050;13.678;2022-08-02T20:35:56;2.28;;;1.20;;
49340;SDS011;35209;51.050;13.678;2022-08-02T20:41:05;1.83;;;1.20;;
49340;SDS011;35209;51.050;13.678;2022-08-02T20:46:12;1.42;;;1.33;;
49340;SDS011;35209;51.050;13.678;2022-08-02T20:51:18;2.83;;;1.60;;
49340;SDS011;35209;51.050;13.678;2022-08-02T20:56:33;6.40;;;1.27;;
49340;SDS011;35209;51.050;13.678;2022-08-02T21:01:36;1.95;;;1.30;;
49340;SDS011;35209;51.050;13.678;2022-08-02T21:06:39;1.77;;;1.20;;
49340;SDS011;35209;51.050;13.678;2022-08-02T21:11:44;2.03;;;1.63;;
49340;SDS011;35209;51.050;13.678;2022-08-02T21:16:51;1.50;;;1.40;;
49340;SDS011;35209;51.050;13.678;2022-08-02T21:21:52;3.38;;;1.23;;
49340;SDS011;35209;51.050;13.678;2022-08-02T21:26:54;2.67;;;1.10;;
49340;SDS011;35209;51.050;13.678;2022-08-02T21:31:56;3.33;;;1.30;;
49340;SDS011;35209;51.050;13.678;2022-08-02T21:36:58;2.75;;;1.38;;
49340;SDS011;35209;51.050;13.678;2022-08-02T21:42:10;1.60;;;1.30;;
49340;SDS011;35209;51.050;13.678;2022-08-02T21:47:22;2.30;;;1.00;;
49340;SDS011;35209;51.050;13.678;2022-08-02T21:52:27;1.98;;;1.20;;
49340;SDS011;35209;51.050;13.678;2022-08-02T21:57:29;2.08;;;1.40;;
49340;SDS011;35209;51.050;13.678;2022-08-02T22:02:35;3.92;;;1.83;;
49340;SDS011;35209;51.050;13.678;2022-08-02T22:07:36;2.60;;;1.80;;
49340;SDS011;35209;51.050;13.678;2022-08-02T22:12:38;2.63;;;1.65;;
49340;SDS011;35209;51.050;13.678;2022-08-02T22:17:40;2.47;;;1.73;;
49340;SDS011;35209;51.050;13.678;2022-08-02T22:22:53;1.50;;;1.40;;
49340;SDS011;35209;51.050;13.678;2022-08-02T22:27:55;2.03;;;1.40;;
49340;SDS011;35209;51.050;13.678;2022-08-02T22:33:17;2.45;;;1.40;;
49340;SDS011;35209;51.050;13.678;2022-08-02T22:38:37;2.80;;;1.70;;
49340;SDS011;35209;51.050;13.678;2022-08-02T22:43:44;2.92;;;1.58;;
49340;SDS011;35209;51.050;13.678;2022-08-02T22:48:46;1.85;;;1.35;;
49340;SDS011;35209;51.050;13.678;2022-08-02T22:53:49;1.80;;;1.20;;
49340;SDS011;35209;51.050;13.678;2022-08-02T22:58:51;1.92;;;1.52;;
49340;SDS011;35209;51.050;13.678;2022-08-02T23:04:12;2.30;;;1.70;;
49340;SDS011;35209;51.050;13.678;2022-08-02T23:09:14;1.77;;;1.50;;
49340;SDS011;35209;51.050;13.678;2022-08-02T23:14:17;1.45;;;1.35;;
49340;SDS011;35209;51.050;13.678;2022-08-02T23:19:19;2.05;;;1.45;;
49340;SDS011;35209;51.050;13.678;2022-08-02T23:24:39;5.40;;;1.80;;
49340;SDS011;35209;51.050;13.678;2022-08-02T23:29:40;3.13;;;1.70;;
49340;SDS011;35209;51.050;13.678;2022-08-02T23:34:42;2.30;;;1.70;;
49340;SDS011;35209;51.050;13.678;2022-08-02T23:39:44;2.45;;;1.55;;
49340;SDS011;35209;51.050;13.678;2022-08-02T23:44:46;2.45;;;1.38;;
49340;SDS011;35209;51.050;13.678;2022-08-02T23:49:47;2.40;;;1.60;;
49340;SDS011;35209;51.050;13.678;2022-08-02T23:54:49;1.73;;;1.30;;
49340;SDS011;35209;51.050;13.678;2022-08-02T23:59:51;1.50;;;1.40;;
